createdAt,value
2022-07-30T00:01:14.609Z,3.78
2022-07-30T00:03:41.537Z,3.50
2022-07-30T00:06:08.397Z,2.83
2022-07-30T00:08:35.172Z,2.50
2022-07-30T00:11:01.918Z,3.28
2022-07-30T00:13:28.700Z,3.33
2022-07-30T00:15:55.478Z,3.15
2022-07-30T00:18:22.440Z,2.45
2022-07-30T00:20:49.351Z,3.28
2022-07-30T00:23:16.120Z,3.72
2022-07-30T00:25:42.954Z,3.20
2022-07-30T00:28:09.757Z,4.38
2022-07-30T00:30:36.578Z,2.67
2022-07-30T00:33:03.428Z,4.95
2022-07-30T00:35:30.284Z,3.70
2022-07-30T00:37:57.074Z,3.47
2022-07-30T00:40:23.910Z,3.70
2022-07-30T00:42:50.675Z,2.40
2022-07-30T00:45:17.790Z,3.38
2022-07-30T00:47:44.664Z,4.00
2022-07-30T00:50:13.147Z,3.15
2022-07-30T00:52:40.432Z,3.58
2022-07-30T00:55:08.868Z,2.28
2022-07-30T00:57:35.692Z,2.88
2022-07-30T01:00:02.653Z,2.97
2022-07-30T01:02:29.478Z,3.10
2022-07-30T01:04:56.338Z,3.35
2022-07-30T01:07:23.977Z,2.92
2022-07-30T01:09:54.038Z,4.25
2022-07-30T01:12:21.877Z,4.43
2022-07-30T01:14:48.648Z,4.55
2022-07-30T01:17:15.507Z,2.80
2022-07-30T01:19:55.936Z,2.35
2022-07-30T01:22:26.522Z,3.20
2022-07-30T01:25:27.688Z,2.55
2022-07-30T01:27:57.401Z,3.92
2022-07-30T01:30:26.949Z,2.35
2022-07-30T01:32:54.020Z,2.35
2022-07-30T01:35:21.252Z,1.85
2022-07-30T01:37:48.057Z,3.05
2022-07-30T01:40:14.896Z,2.78
2022-07-30T01:42:42.136Z,2.58
2022-07-30T01:45:09.163Z,3.25
2022-07-30T01:47:37.180Z,2.65
2022-07-30T01:50:04.937Z,2.15
2022-07-30T01:52:32.041Z,2.92
2022-07-30T01:54:58.819Z,2.20
2022-07-30T01:57:25.764Z,2.20
2022-07-30T01:59:55.315Z,2.58
2022-07-30T02:02:22.095Z,3.22
2022-07-30T02:04:48.894Z,3.20
2022-07-30T02:07:23.793Z,2.45
2022-07-30T02:10:12.128Z,3.13
2022-07-30T02:12:42.382Z,7.22
2022-07-30T02:15:10.831Z,3.67
2022-07-30T02:17:42.996Z,2.45
2022-07-30T02:20:13.475Z,2.58
2022-07-30T02:22:42.410Z,2.72
2022-07-30T02:25:10.562Z,3.03
2022-07-30T02:27:38.975Z,3.63
2022-07-30T02:30:06.150Z,2.17
2022-07-30T02:32:37.682Z,2.40
2022-07-30T02:35:10.532Z,3.33
2022-07-30T02:37:43.911Z,6.88
2022-07-30T02:40:14.895Z,2.80
2022-07-30T02:42:42.266Z,3.08
2022-07-30T02:45:09.395Z,4.47
2022-07-30T02:47:36.152Z,2.55
2022-07-30T02:50:02.982Z,2.78
2022-07-30T02:52:29.765Z,2.50
2022-07-30T02:54:56.887Z,2.90
2022-07-30T02:57:23.919Z,2.90
2022-07-30T02:59:50.671Z,3.78
2022-07-30T03:02:17.526Z,3.75
2022-07-30T03:04:57.313Z,2.95
2022-07-30T03:07:24.104Z,3.83
2022-07-30T03:09:52.364Z,1.88
2022-07-30T03:12:19.583Z,3.40
2022-07-30T03:14:46.349Z,5.05
2022-07-30T03:17:13.156Z,3.72
2022-07-30T03:19:40.005Z,2.85
2022-07-30T03:22:07.911Z,2.83
2022-07-30T03:24:34.754Z,3.25
2022-07-30T03:27:03.814Z,2.70
2022-07-30T03:29:30.896Z,2.47
2022-07-30T03:31:58.035Z,2.25
2022-07-30T03:34:27.051Z,2.30
2022-07-30T03:36:55.622Z,2.03
2022-07-30T03:39:22.729Z,4.10
2022-07-30T03:41:49.691Z,3.90
2022-07-30T03:44:16.445Z,3.20
2022-07-30T03:46:43.320Z,3.22
2022-07-30T03:49:10.505Z,3.80
2022-07-30T03:51:38.909Z,3.05
2022-07-30T03:54:13.259Z,2.95
2022-07-30T03:56:40.811Z,2.92
2022-07-30T03:59:08.080Z,2.38
2022-07-30T04:01:35.027Z,4.38
2022-07-30T04:04:06.486Z,2.50
2022-07-30T04:06:36.456Z,4.03
2022-07-30T04:09:03.279Z,2.00
2022-07-30T04:11:41.666Z,2.38
2022-07-30T04:14:09.090Z,2.88
2022-07-30T04:16:50.272Z,2.42
2022-07-30T04:19:23.493Z,1.83
2022-07-30T04:21:50.843Z,2.70
2022-07-30T04:24:17.629Z,3.08
2022-07-30T04:26:44.392Z,2.28
2022-07-30T04:29:13.781Z,2.83
2022-07-30T04:31:44.316Z,2.38
2022-07-30T04:34:14.152Z,2.28
2022-07-30T04:36:41.010Z,2.72
2022-07-30T04:39:07.821Z,2.40
2022-07-30T04:41:48.199Z,2.10
2022-07-30T04:44:16.319Z,2.13
2022-07-30T04:46:43.234Z,8.20
2022-07-30T04:49:10.619Z,3.05
2022-07-30T04:51:37.418Z,1.92
2022-07-30T04:54:04.324Z,2.63
2022-07-30T04:56:31.148Z,2.40
2022-07-30T04:58:57.916Z,1.83
2022-07-30T05:01:37.093Z,2.58
2022-07-30T05:04:07.939Z,2.80
2022-07-30T05:06:34.800Z,2.58
2022-07-30T05:09:01.596Z,2.70
2022-07-30T05:11:28.361Z,3.42
2022-07-30T05:13:55.114Z,5.68
2022-07-30T05:16:21.938Z,2.67
2022-07-30T05:18:48.774Z,2.25
2022-07-30T05:21:15.538Z,5.78
2022-07-30T05:23:42.322Z,2.15
2022-07-30T05:26:21.180Z,3.38
2022-07-30T05:28:53.543Z,2.33
2022-07-30T05:31:22.029Z,4.07
2022-07-30T05:33:48.861Z,2.67
2022-07-30T05:36:15.640Z,1.83
2022-07-30T05:38:42.451Z,2.42
2022-07-30T05:41:24.564Z,3.03
2022-07-30T05:43:56.878Z,2.20
2022-07-30T05:46:23.925Z,2.33
2022-07-30T05:48:50.836Z,3.45
2022-07-30T05:51:19.433Z,2.10
2022-07-30T05:53:46.468Z,3.25
2022-07-30T05:56:13.308Z,2.75
2022-07-30T05:58:40.167Z,4.28
2022-07-30T06:01:06.952Z,2.22
2022-07-30T06:03:34.875Z,3.28
2022-07-30T06:06:04.728Z,2.50
2022-07-30T06:08:31.632Z,1.98
2022-07-30T06:10:58.458Z,3.13
2022-07-30T06:13:25.397Z,2.47
2022-07-30T06:15:52.287Z,2.25
2022-07-30T06:18:19.097Z,2.60
2022-07-30T06:20:46.444Z,2.53
2022-07-30T06:23:13.282Z,2.78
2022-07-30T06:25:40.063Z,2.47
2022-07-30T06:28:27.845Z,2.28
2022-07-30T06:30:54.435Z,2.55
2022-07-30T06:33:21.252Z,1.83
2022-07-30T06:35:48.953Z,2.38
2022-07-30T06:38:16.308Z,3.10
2022-07-30T06:40:43.095Z,2.25
2022-07-30T06:43:09.852Z,1.70
2022-07-30T06:45:36.593Z,1.95
2022-07-30T06:48:03.529Z,1.75
2022-07-30T06:50:30.309Z,4.00
2022-07-30T06:52:57.065Z,7.57
2022-07-30T06:55:24.080Z,6.90
2022-07-30T06:57:51.359Z,6.72
2022-07-30T07:00:18.197Z,4.30
2022-07-30T07:02:45.228Z,8.73
2022-07-30T07:05:12.318Z,8.95
2022-07-30T07:07:44.541Z,4.65
2022-07-30T07:10:20.733Z,3.67
2022-07-30T07:12:47.590Z,5.22
2022-07-30T07:15:14.472Z,5.20
2022-07-30T07:17:41.945Z,5.22
2022-07-30T07:20:09.463Z,6.57
2022-07-30T07:22:36.780Z,5.13
2022-07-30T07:25:04.150Z,3.58
2022-07-30T07:27:31.883Z,8.25
2022-07-30T07:30:01.253Z,5.10
2022-07-30T07:32:31.481Z,6.93
2022-07-30T07:34:58.699Z,5.03
2022-07-30T07:37:25.512Z,8.48
2022-07-30T07:39:52.359Z,8.63
2022-07-30T07:42:19.584Z,9.57
2022-07-30T07:44:46.392Z,6.55
2022-07-30T07:47:13.178Z,4.53
2022-07-30T07:49:40.041Z,3.92
2022-07-30T07:52:06.864Z,4.07
2022-07-30T07:54:33.970Z,5.18
2022-07-30T07:57:03.259Z,5.70
2022-07-30T07:59:40.166Z,5.65
2022-07-30T08:02:08.944Z,5.60
2022-07-30T08:04:36.553Z,6.32
2022-07-30T08:07:04.245Z,7.07
2022-07-30T08:09:44.311Z,7.00
2022-07-30T08:12:14.764Z,8.40
2022-07-30T08:14:41.580Z,8.80
2022-07-30T08:17:08.923Z,5.50
2022-07-30T08:19:36.104Z,4.70
2022-07-30T08:22:02.893Z,7.97
2022-07-30T08:24:29.698Z,3.92
2022-07-30T08:26:56.455Z,7.20
2022-07-30T08:29:23.227Z,11.50
2022-07-30T08:31:49.997Z,7.03
2022-07-30T08:34:17.039Z,4.65
2022-07-30T08:36:44.448Z,8.13
2022-07-30T08:39:11.562Z,5.22
2022-07-30T08:41:38.610Z,6.38
2022-07-30T08:44:10.128Z,8.25
2022-07-30T08:46:47.300Z,11.85
2022-07-30T08:49:14.900Z,6.80
2022-07-30T08:51:41.742Z,5.07
2022-07-30T08:54:08.599Z,4.53
2022-07-30T08:56:35.587Z,7.82
2022-07-30T08:59:02.946Z,6.93
2022-07-30T09:01:30.046Z,10.00
2022-07-30T09:03:56.876Z,5.50
2022-07-30T09:06:24.012Z,8.05
2022-07-30T09:08:50.865Z,8.05
2022-07-30T09:11:17.698Z,5.40
2022-07-30T09:13:45.087Z,6.85
2022-07-30T09:16:21.828Z,8.77
2022-07-30T09:18:48.850Z,6.10
2022-07-30T09:21:24.488Z,7.43
2022-07-30T09:24:10.899Z,6.47
2022-07-30T09:27:03.134Z,5.43
2022-07-30T09:29:30.708Z,8.15
2022-07-30T09:31:58.231Z,5.00
2022-07-30T09:34:31.105Z,4.10
2022-07-30T09:36:59.153Z,7.03
2022-07-30T09:39:58.908Z,5.93
2022-07-30T09:42:27.928Z,6.80
2022-07-30T09:45:06.109Z,7.72
2022-07-30T09:47:38.574Z,4.88
2022-07-30T09:50:29.479Z,8.05
2022-07-30T09:53:06.964Z,7.03
2022-07-30T09:55:35.298Z,7.07
2022-07-30T09:58:06.642Z,6.20
2022-07-30T10:00:35.085Z,3.53
2022-07-30T10:03:21.674Z,8.70
2022-07-30T10:06:01.497Z,4.85
2022-07-30T10:08:42.705Z,4.75
2022-07-30T10:11:16.018Z,6.72
2022-07-30T10:13:45.670Z,6.80
2022-07-30T10:16:13.282Z,5.70
2022-07-30T10:18:41.995Z,5.60
2022-07-30T10:21:09.572Z,5.57
2022-07-30T10:23:36.786Z,6.22
2022-07-30T10:26:11.090Z,3.92
2022-07-30T10:28:39.664Z,8.48
2022-07-30T10:31:08.422Z,9.85
2022-07-30T10:33:53.289Z,16.02
2022-07-30T10:36:21.214Z,4.35
2022-07-30T10:38:52.543Z,4.22
2022-07-30T10:41:47.541Z,4.03
2022-07-30T10:44:34.443Z,5.07
2022-07-30T10:47:07.449Z,9.52
2022-07-30T10:49:41.555Z,4.07
2022-07-30T10:52:10.565Z,7.45
2022-07-30T10:54:47.664Z,3.58
2022-07-30T10:57:31.656Z,5.20
2022-07-30T11:00:00.563Z,5.35
2022-07-30T11:02:28.802Z,5.20
2022-07-30T11:05:44.308Z,5.35
2022-07-30T11:08:37.658Z,3.78
2022-07-30T11:11:59.565Z,3.33
2022-07-30T11:14:08.527Z,7.80
2022-07-30T11:16:35.260Z,4.97
2022-07-30T11:22:51.005Z,2.83
2022-07-30T11:25:50.212Z,4.85
2022-07-30T11:28:40.957Z,5.05
2022-07-30T11:31:54.991Z,4.40
2022-07-30T11:34:24.219Z,4.82
2022-07-30T11:37:18.132Z,8.95
2022-07-30T11:39:57.489Z,4.38
2022-07-30T11:42:27.427Z,4.57
2022-07-30T11:45:05.994Z,5.28
2022-07-30T11:47:33.043Z,6.18
2022-07-30T11:49:59.922Z,5.20
2022-07-30T11:52:26.719Z,4.28
2022-07-30T11:54:54.244Z,5.00
2022-07-30T11:57:21.048Z,2.67
2022-07-30T11:59:54.826Z,3.05
2022-07-30T12:02:28.285Z,3.05
2022-07-30T12:04:55.110Z,4.25
2022-07-30T12:07:24.682Z,3.05
2022-07-30T12:09:51.507Z,2.95
2022-07-30T12:12:24.946Z,3.63
2022-07-30T12:14:51.950Z,5.15
2022-07-30T12:17:19.727Z,3.10
2022-07-30T12:19:48.885Z,3.28
2022-07-30T12:22:16.232Z,3.33
2022-07-30T12:24:42.975Z,3.90
2022-07-30T12:27:10.082Z,6.85
2022-07-30T12:29:36.853Z,3.35
2022-07-30T12:32:03.840Z,3.60
2022-07-30T12:34:30.614Z,7.63
2022-07-30T12:37:07.578Z,11.07
2022-07-30T12:39:34.323Z,6.25
2022-07-30T12:42:01.085Z,7.63
2022-07-30T12:44:54.522Z,4.85
2022-07-30T12:47:25.649Z,4.07
2022-07-30T12:49:56.498Z,6.28
2022-07-30T12:52:31.417Z,4.82
2022-07-30T12:55:05.905Z,4.50
2022-07-30T12:58:09.406Z,5.97
2022-07-30T13:00:51.156Z,8.48
2022-07-30T13:03:24.801Z,9.00
2022-07-30T13:05:55.520Z,6.80
2022-07-30T13:08:58.726Z,4.20
2022-07-30T13:11:27.471Z,6.43
2022-07-30T13:13:54.224Z,7.68
2022-07-30T13:16:21.168Z,8.75
2022-07-30T13:18:47.993Z,5.38
2022-07-30T13:21:14.899Z,11.75
2022-07-30T13:23:41.873Z,6.35
2022-07-30T13:26:09.081Z,7.03
2022-07-30T13:28:35.872Z,7.57
2022-07-30T13:31:02.678Z,7.07
2022-07-30T13:33:29.607Z,9.50
2022-07-30T13:35:56.602Z,9.23
2022-07-30T13:38:23.518Z,6.50
2022-07-30T13:40:50.680Z,5.15
2022-07-30T13:43:17.474Z,8.80
2022-07-30T13:45:44.297Z,6.38
2022-07-30T13:48:11.165Z,6.15
2022-07-30T13:50:38.243Z,7.95
2022-07-30T13:53:05.530Z,8.05
2022-07-30T13:55:32.336Z,11.43
2022-07-30T13:57:59.809Z,4.45
2022-07-30T14:00:32.283Z,8.57
2022-07-30T14:03:00.743Z,4.50
2022-07-30T14:05:27.812Z,5.38
2022-07-30T14:07:54.596Z,5.13
2022-07-30T14:10:24.626Z,7.35
2022-07-30T14:12:55.205Z,4.75
2022-07-30T14:15:22.818Z,5.65
2022-07-30T14:17:56.628Z,8.13
2022-07-30T14:20:23.840Z,5.15
2022-07-30T14:22:50.669Z,4.90
2022-07-30T14:25:17.601Z,7.18
2022-07-30T14:27:44.611Z,8.65
2022-07-30T14:30:15.126Z,7.18
2022-07-30T14:32:42.301Z,5.22
2022-07-30T14:35:10.070Z,8.38
2022-07-30T14:37:38.149Z,6.40
2022-07-30T14:40:06.637Z,5.35
2022-07-30T14:42:33.467Z,4.45
2022-07-30T14:45:00.255Z,5.15
2022-07-30T14:47:27.026Z,5.97
2022-07-30T14:49:54.344Z,3.88
2022-07-30T14:52:21.253Z,4.13
2022-07-30T14:54:48.101Z,4.75
2022-07-30T14:57:15.323Z,4.05
2022-07-30T14:59:42.097Z,4.70
2022-07-30T15:02:10.831Z,3.78
2022-07-30T15:04:37.859Z,5.72
2022-07-30T15:07:04.692Z,4.25
2022-07-30T15:09:34.137Z,4.63
2022-07-30T15:12:08.482Z,4.97
2022-07-30T15:14:38.050Z,5.00
2022-07-30T15:17:06.090Z,4.45
2022-07-30T15:19:34.164Z,5.75
2022-07-30T15:22:02.644Z,6.70
2022-07-30T15:24:30.409Z,5.97
2022-07-30T15:26:57.428Z,5.05
2022-07-30T15:29:24.370Z,2.58
2022-07-30T15:31:52.098Z,4.07
2022-07-30T15:34:19.167Z,3.95
2022-07-30T15:36:46.023Z,3.15
2022-07-30T15:39:13.494Z,3.67
2022-07-30T15:41:42.446Z,3.75
2022-07-30T15:44:09.286Z,3.58
2022-07-30T15:46:36.173Z,4.13
2022-07-30T15:49:03.357Z,3.00
2022-07-30T15:51:31.869Z,4.18
2022-07-30T15:53:58.829Z,3.97
2022-07-30T15:56:28.555Z,5.82
2022-07-30T15:58:55.826Z,4.13
2022-07-30T16:01:23.074Z,3.47
2022-07-30T16:03:50.137Z,4.10
2022-07-30T16:06:17.059Z,2.97
2022-07-30T16:08:44.125Z,5.90
2022-07-30T16:11:11.215Z,5.57
2022-07-30T16:13:38.143Z,6.85
2022-07-30T16:16:05.415Z,6.15
2022-07-30T16:18:32.492Z,7.22
2022-07-30T16:21:01.272Z,4.68
2022-07-30T16:23:28.629Z,4.93
2022-07-30T16:26:03.913Z,4.75
2022-07-30T16:28:31.152Z,7.40
2022-07-30T16:30:58.014Z,6.07
2022-07-30T16:33:24.988Z,3.92
2022-07-30T16:35:52.315Z,4.60
2022-07-30T16:38:23.181Z,7.55
2022-07-30T16:40:50.410Z,3.80
2022-07-30T16:43:19.776Z,5.85
2022-07-30T16:45:47.303Z,4.90
2022-07-30T16:48:14.187Z,5.70
2022-07-30T16:50:41.605Z,4.78
2022-07-30T16:53:13.465Z,8.80
2022-07-30T16:55:42.135Z,7.72
2022-07-30T16:58:09.336Z,8.23
2022-07-30T17:00:37.068Z,6.20
2022-07-30T17:03:04.315Z,7.65
2022-07-30T17:05:31.387Z,6.72
2022-07-30T17:07:58.369Z,6.53
2022-07-30T17:10:25.875Z,4.28
2022-07-30T17:12:54.167Z,4.60
2022-07-30T17:15:32.049Z,6.63
2022-07-30T17:17:59.618Z,6.07
2022-07-30T17:20:26.416Z,11.80
2022-07-30T17:22:55.354Z,16.35
2022-07-30T17:25:28.308Z,11.32
2022-07-30T17:27:56.007Z,10.32
2022-07-30T17:30:23.345Z,8.82
2022-07-30T17:32:50.565Z,7.18
2022-07-30T17:35:17.352Z,6.75
2022-07-30T17:37:44.103Z,7.85
2022-07-30T17:40:28.228Z,4.65
2022-07-30T17:43:03.732Z,5.00
2022-07-30T17:45:34.803Z,6.63
2022-07-30T17:48:02.018Z,7.13
2022-07-30T17:50:29.655Z,6.03
2022-07-30T17:52:56.453Z,6.15
2022-07-30T17:55:23.303Z,9.30
2022-07-30T17:57:50.084Z,4.78
2022-07-30T18:00:17.042Z,7.72
2022-07-30T18:02:43.805Z,5.65
2022-07-30T18:05:11.047Z,4.82
2022-07-30T18:07:37.874Z,5.63
2022-07-30T18:10:05.026Z,12.27
2022-07-30T18:12:31.829Z,8.10
2022-07-30T18:14:59.263Z,8.48
2022-07-30T18:17:26.093Z,8.20
2022-07-30T18:19:53.038Z,7.57
2022-07-30T18:22:28.190Z,7.53
2022-07-30T18:24:57.380Z,11.48
2022-07-30T18:27:24.197Z,9.40
2022-07-30T18:29:50.972Z,10.68
2022-07-30T18:32:17.769Z,9.77
2022-07-30T18:34:44.631Z,9.68
2022-07-30T18:37:11.407Z,9.40
2022-07-30T18:39:38.189Z,6.00
2022-07-30T18:42:05.592Z,8.20
2022-07-30T18:44:32.873Z,4.35
2022-07-30T18:46:59.681Z,7.78
2022-07-30T18:49:36.572Z,4.15
2022-07-30T18:52:05.841Z,6.93
2022-07-30T18:54:33.069Z,4.35
2022-07-30T18:56:59.894Z,6.55
2022-07-30T18:59:26.766Z,5.50
2022-07-30T19:01:53.871Z,5.05
2022-07-30T19:04:20.679Z,4.75
2022-07-30T19:06:48.613Z,4.60
2022-07-30T19:09:17.860Z,4.85
2022-07-30T19:11:46.087Z,4.13
2022-07-30T19:14:13.327Z,3.40
2022-07-30T19:16:41.804Z,4.75
2022-07-30T19:19:08.988Z,3.08
2022-07-30T19:21:36.354Z,5.65
2022-07-30T19:24:03.832Z,6.82
2022-07-30T19:26:31.878Z,3.08
2022-07-30T19:28:59.045Z,3.22
2022-07-30T19:31:26.436Z,3.45
2022-07-30T19:33:53.336Z,6.30
2022-07-30T19:36:23.047Z,3.45
2022-07-30T19:38:50.165Z,4.13
2022-07-30T19:41:17.273Z,2.45
2022-07-30T19:43:58.043Z,4.25
2022-07-30T19:46:25.484Z,3.60
2022-07-30T19:48:52.399Z,3.20
2022-07-30T19:51:20.948Z,4.97
2022-07-30T19:53:52.150Z,4.78
2022-07-30T19:56:19.602Z,4.25
2022-07-30T19:58:46.454Z,2.28
2022-07-30T20:01:15.760Z,4.07
2022-07-30T20:03:45.785Z,6.40
2022-07-30T20:06:15.117Z,4.70
2022-07-30T20:08:44.683Z,4.30
2022-07-30T20:11:21.269Z,4.55
2022-07-30T20:13:59.110Z,4.95
2022-07-30T20:16:26.189Z,8.50
2022-07-30T20:18:54.475Z,4.60
2022-07-30T20:21:21.259Z,3.95
2022-07-30T20:24:08.152Z,8.88
2022-07-30T20:26:35.737Z,5.53
2022-07-30T20:29:02.682Z,6.75
2022-07-30T20:31:36.304Z,4.55
2022-07-30T20:34:04.865Z,9.20
2022-07-30T20:36:43.133Z,10.95
2022-07-30T20:39:10.697Z,9.77
2022-07-30T20:41:40.221Z,9.73
2022-07-30T20:44:10.193Z,6.97
2022-07-30T20:46:40.181Z,7.85
2022-07-30T20:49:07.025Z,9.73
2022-07-30T20:51:34.018Z,5.32
2022-07-30T20:54:01.117Z,6.53
2022-07-30T20:56:28.616Z,4.78
2022-07-30T20:58:56.776Z,7.05
2022-07-30T21:01:23.617Z,6.07
2022-07-30T21:03:50.469Z,4.95
2022-07-30T21:06:17.330Z,7.22
2022-07-30T21:08:44.091Z,4.63
2022-07-30T21:11:12.647Z,5.03
2022-07-30T21:13:39.737Z,5.25
2022-07-30T21:16:15.845Z,4.55
2022-07-30T21:18:55.035Z,6.22
2022-07-30T21:21:30.569Z,5.68
2022-07-30T21:24:05.525Z,8.77
2022-07-30T21:26:32.397Z,5.78
2022-07-30T21:29:00.790Z,5.35
2022-07-30T21:31:34.908Z,5.32
2022-07-30T21:34:14.573Z,8.50
2022-07-30T21:36:42.746Z,5.63
2022-07-30T21:39:09.951Z,6.60
2022-07-30T21:41:41.143Z,4.47
2022-07-30T21:44:08.343Z,5.65
2022-07-30T21:46:37.770Z,6.15
2022-07-30T21:49:07.041Z,4.03
2022-07-30T21:51:35.177Z,3.42
2022-07-30T21:54:07.336Z,4.18
2022-07-30T21:56:34.231Z,6.07
2022-07-30T21:59:01.055Z,5.03
2022-07-30T22:01:27.803Z,3.67
2022-07-30T22:04:02.136Z,4.68
2022-07-30T22:06:37.812Z,3.80
2022-07-30T22:09:18.269Z,4.80
2022-07-30T22:11:52.444Z,4.25
2022-07-30T22:14:19.285Z,4.20
2022-07-30T22:16:46.699Z,4.82
2022-07-30T22:19:14.972Z,4.38
2022-07-30T22:21:46.657Z,3.42
2022-07-30T22:24:29.145Z,2.92
2022-07-30T22:27:01.715Z,3.88
2022-07-30T22:29:38.214Z,2.08
2022-07-30T22:32:07.862Z,5.97
2022-07-30T22:34:34.907Z,2.70
2022-07-30T22:37:01.708Z,3.47
2022-07-30T22:39:31.539Z,2.50
2022-07-30T22:42:16.067Z,3.53
2022-07-30T22:44:46.279Z,4.40
2022-07-30T22:47:21.828Z,2.75
2022-07-30T22:50:01.566Z,3.95
2022-07-30T22:52:29.589Z,2.80
2022-07-30T22:55:02.044Z,3.70
2022-07-30T22:57:44.485Z,2.20
2022-07-30T23:00:15.182Z,2.63
2022-07-30T23:02:54.385Z,3.85
2022-07-30T23:05:22.852Z,3.15
2022-07-30T23:07:49.924Z,4.13
2022-07-30T23:10:18.657Z,4.68
2022-07-30T23:12:48.986Z,2.67
2022-07-30T23:15:15.920Z,2.45
2022-07-30T23:17:43.619Z,3.63
2022-07-30T23:20:13.710Z,5.10
2022-07-30T23:22:40.712Z,3.33
2022-07-30T23:25:10.233Z,3.40
2022-07-30T23:27:37.096Z,1.73
2022-07-30T23:30:04.124Z,2.67
2022-07-30T23:32:30.878Z,3.10
2022-07-30T23:34:57.632Z,3.67
2022-07-30T23:37:24.456Z,3.40
2022-07-30T23:39:51.371Z,3.88
2022-07-30T23:42:18.858Z,2.83
2022-07-30T23:44:45.622Z,2.60
2022-07-30T23:47:12.463Z,4.82
2022-07-30T23:49:39.217Z,2.67
2022-07-30T23:52:05.981Z,3.83
2022-07-30T23:54:32.746Z,3.55
2022-07-30T23:56:59.551Z,3.70
2022-07-30T23:59:36.867Z,3.53
